createdAt,value
2022-09-10T00:01:27.350Z,11.90
2022-09-10T00:03:55.859Z,12.20
2022-09-10T00:06:27.656Z,12.20
2022-09-10T00:08:57.715Z,13.70
2022-09-10T00:11:30.402Z,11.20
2022-09-10T00:14:00.119Z,10.40
2022-09-10T00:16:29.129Z,10.80
2022-09-10T00:19:01.094Z,10.80
2022-09-10T00:21:29.865Z,10.70
2022-09-10T00:23:58.638Z,11.20
2022-09-10T00:26:30.094Z,10.50
2022-09-10T00:28:59.799Z,11.00
2022-09-10T00:31:29.598Z,11.60
2022-09-10T00:33:59.129Z,11.70
2022-09-10T00:36:29.711Z,11.20
2022-09-10T00:39:02.245Z,11.30
2022-09-10T00:41:30.942Z,11.90
2022-09-10T00:44:04.973Z,11.80
2022-09-10T00:46:50.342Z,11.50
2022-09-10T00:49:43.622Z,13.00
2022-09-10T00:52:12.657Z,10.80
2022-09-10T00:54:42.567Z,12.00
2022-09-10T00:57:14.782Z,10.20
2022-09-10T00:59:48.439Z,10.60
2022-09-10T01:02:16.171Z,11.50
2022-09-10T01:04:44.906Z,11.80
2022-09-10T01:07:15.541Z,12.30
2022-09-10T01:09:43.726Z,12.10
2022-09-10T01:12:42.211Z,10.50
2022-09-10T01:15:41.399Z,12.00
2022-09-10T01:18:39.710Z,12.50
2022-09-10T01:21:28.284Z,10.90
2022-09-10T01:24:12.626Z,10.90
2022-09-10T01:26:43.380Z,14.20
2022-09-10T01:29:19.824Z,11.70
2022-09-10T01:31:51.101Z,11.50
2022-09-10T01:34:27.036Z,12.00
2022-09-10T01:37:01.211Z,12.40
2022-09-10T01:39:29.597Z,13.30
2022-09-10T01:42:00.132Z,12.70
2022-09-10T01:44:48.596Z,13.10
2022-09-10T01:47:45.303Z,13.50
2022-09-10T01:50:32.645Z,14.70
2022-09-10T01:53:33.597Z,12.90
2022-09-10T01:56:23.056Z,10.60
2022-09-10T01:58:54.632Z,10.40
2022-09-10T02:01:40.622Z,10.20
2022-09-10T02:04:14.657Z,10.60
2022-09-10T02:06:47.826Z,10.10
2022-09-10T02:09:18.558Z,10.50
2022-09-10T02:11:49.948Z,11.30
2022-09-10T02:14:34.061Z,12.40
2022-09-10T02:17:19.149Z,10.30
2022-09-10T02:19:51.490Z,12.20
2022-09-10T02:22:23.799Z,11.30
2022-09-10T02:24:52.560Z,10.60
2022-09-10T02:27:20.354Z,11.70
2022-09-10T02:29:49.389Z,10.50
2022-09-10T02:32:17.292Z,10.80
2022-09-10T02:34:45.476Z,10.20
2022-09-10T02:37:13.874Z,11.10
2022-09-10T02:39:41.964Z,10.10
2022-09-10T02:42:09.728Z,10.30
2022-09-10T02:44:37.558Z,12.20
2022-09-10T02:47:06.138Z,11.40
2022-09-10T02:49:34.617Z,11.60
2022-09-10T02:52:03.411Z,10.40
2022-09-10T02:54:31.155Z,11.40
2022-09-10T02:57:00.175Z,10.30
2022-09-10T02:59:28.558Z,11.20
2022-09-10T03:01:56.373Z,10.20
2022-09-10T03:04:24.311Z,11.80
2022-09-10T03:06:53.504Z,12.80
2022-09-10T03:09:22.690Z,11.90
2022-09-10T03:11:51.580Z,12.50
2022-09-10T03:14:23.140Z,13.10
2022-09-10T03:16:50.980Z,9.60
2022-09-10T03:19:18.637Z,10.70
2022-09-10T03:21:47.351Z,11.10
2022-09-10T03:24:15.643Z,9.40
2022-09-10T03:26:44.467Z,10.20
2022-09-10T03:29:12.671Z,10.00
2022-09-10T03:31:40.674Z,8.70
2022-09-10T03:34:12.529Z,10.50
2022-09-10T03:36:40.605Z,10.50
2022-09-10T03:39:08.764Z,8.70
2022-09-10T03:41:37.363Z,9.90
2022-09-10T03:44:06.145Z,12.40
2022-09-10T03:46:33.761Z,9.70
2022-09-10T03:49:03.307Z,9.00
2022-09-10T03:51:31.638Z,11.50
2022-09-10T03:54:00.204Z,11.20
2022-09-10T03:56:28.268Z,9.70
2022-09-10T03:58:56.837Z,11.30
2022-09-10T04:01:27.378Z,10.20
2022-09-10T04:03:56.671Z,10.40
2022-09-10T04:06:26.324Z,10.10
2022-09-10T04:08:54.086Z,11.90
2022-09-10T04:11:27.484Z,11.20
2022-09-10T04:16:25.003Z,10.60
2022-09-10T04:18:52.685Z,9.80
2022-09-10T04:21:20.541Z,10.00
2022-09-10T04:23:54.655Z,9.70
2022-09-10T04:26:23.260Z,8.70
2022-09-10T04:28:51.263Z,9.90
2022-09-10T04:31:19.620Z,9.40
2022-09-10T04:33:48.417Z,9.90
2022-09-10T04:36:19.227Z,10.20
2022-09-10T04:38:46.977Z,9.20
2022-09-10T04:41:18.137Z,9.30
2022-09-10T04:43:46.306Z,9.20
2022-09-10T04:46:14.077Z,11.10
2022-09-10T04:48:43.800Z,9.60
2022-09-10T04:51:16.491Z,8.80
2022-09-10T04:53:46.845Z,8.80
2022-09-10T04:56:15.582Z,10.70
2022-09-10T04:58:44.150Z,9.60
2022-09-10T05:01:13.340Z,9.10
2022-09-10T05:03:42.670Z,9.40
2022-09-10T05:06:10.391Z,9.20
2022-09-10T05:08:38.300Z,8.70
2022-09-10T05:11:06.501Z,8.90
2022-09-10T05:13:34.981Z,9.00
2022-09-10T05:16:02.870Z,8.50
2022-09-10T05:18:34.022Z,9.00
2022-09-10T05:21:02.065Z,12.60
2022-09-10T05:23:30.094Z,8.00
2022-09-10T05:26:00.283Z,8.80
2022-09-10T05:28:28.684Z,10.30
2022-09-10T05:30:56.760Z,9.30
2022-09-10T05:33:27.324Z,9.70
2022-09-10T05:35:55.624Z,8.90
2022-09-10T05:38:24.798Z,11.20
2022-09-10T05:40:52.716Z,9.20
2022-09-10T05:43:20.918Z,9.40
2022-09-10T05:45:51.880Z,8.40
2022-09-10T05:48:21.187Z,8.00
2022-09-10T05:50:50.792Z,8.00
2022-09-10T05:53:18.832Z,8.00
2022-09-10T05:55:46.431Z,7.90
2022-09-10T05:58:14.296Z,8.00
2022-09-10T06:00:45.271Z,8.90
2022-09-10T06:03:14.559Z,8.50
2022-09-10T06:05:52.533Z,9.10
2022-09-10T06:08:25.116Z,9.60
2022-09-10T06:11:00.502Z,8.80
2022-09-10T06:13:33.850Z,8.70
2022-09-10T06:16:02.023Z,8.80
2022-09-10T06:18:31.961Z,10.90
2022-09-10T06:21:10.141Z,8.30
2022-09-10T06:23:39.149Z,9.20
2022-09-10T06:26:10.316Z,9.30
2022-09-10T06:28:38.990Z,8.60
2022-09-10T06:31:10.915Z,9.20
2022-09-10T06:33:38.627Z,9.10
2022-09-10T06:36:06.968Z,9.40
2022-09-10T06:38:36.002Z,9.20
2022-09-10T06:41:08.872Z,8.40
2022-09-10T06:43:41.497Z,9.40
2022-09-10T06:46:51.194Z,9.30
2022-09-10T06:49:11.697Z,10.00
2022-09-10T06:51:39.790Z,8.20
2022-09-10T06:54:09.389Z,9.30
2022-09-10T06:56:38.094Z,9.10
2022-09-10T06:59:06.281Z,9.00
2022-09-10T07:01:38.247Z,8.10
2022-09-10T07:04:06.788Z,10.40
2022-09-10T07:06:35.975Z,8.20
2022-09-10T07:09:06.828Z,8.80
2022-09-10T07:11:41.758Z,8.80
2022-09-10T07:14:13.962Z,8.30
2022-09-10T07:16:42.385Z,11.20
2022-09-10T07:19:14.784Z,9.20
2022-09-10T07:21:45.267Z,11.30
2022-09-10T07:24:15.465Z,24.70
2022-09-10T07:26:59.404Z,16.10
2022-09-10T07:29:31.167Z,10.70
2022-09-10T07:32:00.444Z,8.90
2022-09-10T07:34:30.061Z,7.90
2022-09-10T07:36:57.665Z,8.90
2022-09-10T07:39:26.819Z,7.80
2022-09-10T07:41:57.149Z,9.00
2022-09-10T07:44:29.189Z,8.20
2022-09-10T07:47:03.430Z,10.10
2022-09-10T07:49:33.410Z,14.50
2022-09-10T07:52:00.981Z,10.60
2022-09-10T07:54:37.279Z,8.10
2022-09-10T07:57:06.361Z,8.30
2022-09-10T07:59:35.474Z,8.40
2022-09-10T08:02:06.475Z,9.40
2022-09-10T08:04:37.574Z,8.80
2022-09-10T08:07:08.443Z,9.50
2022-09-10T08:09:38.123Z,8.50
2022-09-10T08:12:08.026Z,8.90
2022-09-10T08:14:38.987Z,8.00
2022-09-10T08:17:06.889Z,8.40
2022-09-10T08:19:39.419Z,8.80
2022-09-10T08:22:11.454Z,9.30
2022-09-10T08:24:44.382Z,8.60
2022-09-10T08:27:12.245Z,14.70
2022-09-10T08:29:40.590Z,10.30
2022-09-10T08:32:12.862Z,9.20
2022-09-10T08:34:41.338Z,9.50
2022-09-10T08:37:10.869Z,8.90
2022-09-10T08:39:39.019Z,13.60
2022-09-10T08:42:09.251Z,26.80
2022-09-10T08:44:58.880Z,14.40
2022-09-10T08:47:45.633Z,12.60
2022-09-10T08:50:30.001Z,11.00
2022-09-10T08:55:47.099Z,23.40
2022-09-10T08:58:20.835Z,33.50
2022-09-10T09:00:55.870Z,27.60
2022-09-10T09:03:42.891Z,23.00
2022-09-10T09:06:24.989Z,20.90
2022-09-10T09:08:54.306Z,18.00
2022-09-10T09:11:31.962Z,9.60
2022-09-10T09:14:12.881Z,8.50
2022-09-10T09:16:47.031Z,8.70
2022-09-10T09:19:18.206Z,10.70
2022-09-10T09:21:53.189Z,11.70
2022-09-10T09:24:24.628Z,11.90
2022-09-10T09:27:01.813Z,12.10
2022-09-10T09:29:46.148Z,9.90
2022-09-10T09:32:17.802Z,12.60
2022-09-10T09:35:07.388Z,13.80
2022-09-10T09:37:37.913Z,13.80
2022-09-10T09:40:16.662Z,11.80
2022-09-10T09:43:04.743Z,12.70
2022-09-10T09:45:38.466Z,12.70
2022-09-10T09:48:10.030Z,13.90
2022-09-10T09:50:41.737Z,11.10
2022-09-10T09:53:26.972Z,14.80
2022-09-10T09:56:04.602Z,11.20
2022-09-10T09:58:35.361Z,11.90
2022-09-10T10:01:05.710Z,13.80
2022-09-10T10:03:42.357Z,13.10
2022-09-10T10:06:12.097Z,12.50
2022-09-10T10:08:44.185Z,13.60
2022-09-10T10:11:20.448Z,18.60
2022-09-10T10:13:52.927Z,12.30
2022-09-10T10:16:36.618Z,12.70
2022-09-10T10:19:40.274Z,11.10
2022-09-10T10:22:13.840Z,14.20
2022-09-10T10:27:17.533Z,12.50
2022-09-10T10:29:53.964Z,10.30
2022-09-10T10:32:34.553Z,9.40
2022-09-10T10:35:16.447Z,11.80
2022-09-10T10:37:51.977Z,10.40
2022-09-10T10:40:30.391Z,10.10
2022-09-10T10:43:16.620Z,13.10
2022-09-10T10:46:11.291Z,12.10
2022-09-10T10:48:50.723Z,11.90
2022-09-10T10:51:41.325Z,12.60
2022-09-10T10:54:22.290Z,13.20
2022-09-10T10:56:59.903Z,11.20
2022-09-10T10:59:33.427Z,10.80
2022-09-10T11:04:46.644Z,9.90
2022-09-10T11:07:21.597Z,14.30
2022-09-10T11:10:11.617Z,16.00
2022-09-10T11:12:49.218Z,18.60
2022-09-10T11:15:28.911Z,12.00
2022-09-10T11:18:29.536Z,16.50
2022-09-10T11:21:03.258Z,16.00
2022-09-10T11:24:00.285Z,11.80
2022-09-10T11:26:38.997Z,15.10
2022-09-10T11:29:28.694Z,12.80
2022-09-10T11:32:35.991Z,14.30
2022-09-10T11:35:12.805Z,9.80
2022-09-10T11:38:01.230Z,10.50
2022-09-10T11:40:52.620Z,10.80
2022-09-10T11:43:33.238Z,9.80
2022-09-10T11:46:05.843Z,11.40
2022-09-10T11:48:42.363Z,12.00
2022-09-10T11:51:37.647Z,9.60
2022-09-10T11:54:13.408Z,11.60
2022-09-10T11:56:46.941Z,9.70
2022-09-10T12:02:24.143Z,10.10
2022-09-10T12:05:10.782Z,9.50
2022-09-10T12:07:50.365Z,10.40
2022-09-10T12:10:50.408Z,10.00
2022-09-10T12:13:18.228Z,11.10
2022-09-10T12:15:57.542Z,10.50
2022-09-10T12:18:32.417Z,11.30
2022-09-10T12:21:08.085Z,11.10
2022-09-10T12:23:39.911Z,11.20
2022-09-10T12:26:16.291Z,10.90
2022-09-10T12:29:01.494Z,12.10
2022-09-10T12:32:05.220Z,12.00
2022-09-10T12:34:33.378Z,10.90
2022-09-10T12:37:00.929Z,11.80
2022-09-10T12:39:29.400Z,11.40
2022-09-10T12:42:22.896Z,11.30
2022-09-10T12:44:50.601Z,11.20
2022-09-10T12:47:18.114Z,10.90
2022-09-10T12:49:52.877Z,12.70
2022-09-10T12:52:31.975Z,11.90
2022-09-10T12:55:31.890Z,11.90
2022-09-10T12:58:12.404Z,11.70
2022-09-10T13:00:56.010Z,12.20
2022-09-10T13:03:28.959Z,11.10
2022-09-10T13:06:00.639Z,11.20
2022-09-10T13:08:33.906Z,11.20
2022-09-10T13:11:03.129Z,10.30
2022-09-10T13:13:46.673Z,10.00
2022-09-10T13:16:38.279Z,12.40
2022-09-10T13:19:22.052Z,10.80
2022-09-10T13:21:52.247Z,10.10
2022-09-10T13:24:37.085Z,11.70
2022-09-10T13:27:08.337Z,10.90
2022-09-10T13:29:39.836Z,14.40
2022-09-10T13:32:15.141Z,11.30
2022-09-10T13:34:49.973Z,11.40
2022-09-10T13:37:48.573Z,11.50
2022-09-10T13:40:48.831Z,11.00
2022-09-10T13:43:48.837Z,11.90
2022-09-10T13:46:31.081Z,10.40
2022-09-10T13:49:12.538Z,10.40
2022-09-10T13:51:58.523Z,10.20
2022-09-10T13:54:35.277Z,11.30
2022-09-10T13:57:34.903Z,10.20
2022-09-10T14:00:18.846Z,10.70
2022-09-10T14:02:53.079Z,12.50
2022-09-10T14:05:35.229Z,10.60
2022-09-10T14:08:27.564Z,11.70
2022-09-10T14:11:15.838Z,10.70
2022-09-10T14:14:05.841Z,11.20
2022-09-10T14:16:33.370Z,9.50
2022-09-10T14:19:04.035Z,9.30
2022-09-10T14:21:32.298Z,9.90
2022-09-10T14:24:00.140Z,10.90
2022-09-10T14:26:30.424Z,10.40
2022-09-10T14:29:22.623Z,9.20
2022-09-10T14:31:50.362Z,11.00
2022-09-10T14:34:32.293Z,11.80
2022-09-10T14:37:02.167Z,10.80
2022-09-10T14:39:30.096Z,10.60
2022-09-10T14:42:29.887Z,10.60
2022-09-10T14:44:57.534Z,10.50
2022-09-10T14:47:34.782Z,10.00
2022-09-10T14:50:34.721Z,10.90
2022-09-10T14:53:02.862Z,11.00
2022-09-10T14:55:32.308Z,9.90
2022-09-10T14:58:00.078Z,10.20
2022-09-10T15:00:28.203Z,10.20
2022-09-10T15:02:57.189Z,11.60
2022-09-10T15:05:24.810Z,12.70
2022-09-10T15:07:52.396Z,11.40
2022-09-10T15:10:20.487Z,10.60
2022-09-10T15:12:49.783Z,10.50
2022-09-10T15:15:18.022Z,10.10
2022-09-10T15:17:45.630Z,11.10
2022-09-10T15:20:16.769Z,9.90
2022-09-10T15:22:44.835Z,11.60
2022-09-10T15:25:33.835Z,18.30
2022-09-10T15:28:04.044Z,15.90
2022-09-10T15:30:31.761Z,11.60
2022-09-10T15:33:00.074Z,11.70
2022-09-10T15:35:28.767Z,10.60
2022-09-10T15:37:57.647Z,12.10
2022-09-10T15:40:25.249Z,11.10
2022-09-10T15:42:52.958Z,11.20
2022-09-10T15:45:20.563Z,11.60
2022-09-10T15:47:48.243Z,10.70
2022-09-10T15:50:16.682Z,10.90
2022-09-10T15:52:44.949Z,10.20
2022-09-10T15:55:13.232Z,11.00
2022-09-10T15:57:41.026Z,11.90
2022-09-10T16:00:09.494Z,11.60
2022-09-10T16:02:37.374Z,11.50
2022-09-10T16:05:05.931Z,12.50
2022-09-10T16:07:33.589Z,11.00
2022-09-10T16:10:01.992Z,11.10
2022-09-10T16:12:31.179Z,11.30
2022-09-10T16:15:00.809Z,18.80
2022-09-10T16:17:28.499Z,11.90
2022-09-10T16:19:56.425Z,12.60
2022-09-10T16:22:24.013Z,11.30
2022-09-10T16:24:51.888Z,12.00
2022-09-10T16:27:19.704Z,11.80
2022-09-10T16:29:48.647Z,11.70
2022-09-10T16:32:16.308Z,11.30
2022-09-10T16:34:44.064Z,11.00
2022-09-10T16:37:11.691Z,11.10
2022-09-10T16:39:40.246Z,11.30
2022-09-10T16:42:08.254Z,11.60
2022-09-10T16:44:36.236Z,11.80
2022-09-10T16:47:03.971Z,12.00
2022-09-10T16:49:32.485Z,10.80
2022-09-10T16:52:00.072Z,14.00
2022-09-10T16:54:31.788Z,14.10
2022-09-10T16:56:59.400Z,12.40
2022-09-10T16:59:28.049Z,11.60
2022-09-10T17:01:59.037Z,12.40
2022-09-10T17:04:29.298Z,12.60
2022-09-10T17:06:58.063Z,12.70
2022-09-10T17:09:26.261Z,13.50
2022-09-10T17:11:54.213Z,12.60
2022-09-10T17:14:22.159Z,12.20
2022-09-10T17:16:50.075Z,12.90
2022-09-10T17:19:23.665Z,13.00
2022-09-10T17:21:55.133Z,13.60
2022-09-10T17:24:26.360Z,13.20
2022-09-10T17:26:57.924Z,13.00
2022-09-10T17:29:25.826Z,12.80
2022-09-10T17:31:57.341Z,13.60
2022-09-10T17:34:26.346Z,12.70
2022-09-10T17:36:54.451Z,13.80
2022-09-10T17:39:22.704Z,12.60
2022-09-10T17:41:50.290Z,12.90
2022-09-10T17:44:18.138Z,12.60
2022-09-10T17:46:46.373Z,12.30
2022-09-10T17:49:15.530Z,12.80
2022-09-10T17:51:43.993Z,12.60
2022-09-10T17:54:13.029Z,14.30
2022-09-10T17:56:41.926Z,16.20
2022-09-10T17:59:12.108Z,13.50
2022-09-10T18:01:40.549Z,13.60
2022-09-10T18:04:12.556Z,14.00
2022-09-10T18:06:40.826Z,13.80
2022-09-10T18:09:08.597Z,14.80
2022-09-10T18:11:39.823Z,18.20
2022-09-10T18:14:08.252Z,14.80
2022-09-10T18:16:37.935Z,14.10
2022-09-10T18:19:13.728Z,15.10
2022-09-10T18:21:44.391Z,14.90
2022-09-10T18:24:15.129Z,14.70
2022-09-10T18:26:45.655Z,14.20
2022-09-10T18:29:17.643Z,14.60
2022-09-10T18:31:48.941Z,14.20
2022-09-10T18:34:23.543Z,13.30
2022-09-10T18:36:55.384Z,15.00
2022-09-10T18:39:24.885Z,14.20
2022-09-10T18:41:53.365Z,13.90
2022-09-10T18:44:27.772Z,13.80
2022-09-10T18:46:55.968Z,14.50
2022-09-10T18:49:25.053Z,14.40
2022-09-10T18:51:55.333Z,14.20
2022-09-10T18:54:28.571Z,13.80
2022-09-10T18:56:57.353Z,14.00
2022-09-10T18:59:25.471Z,14.10
2022-09-10T19:01:55.600Z,14.60
2022-09-10T19:04:25.969Z,14.20
2022-09-10T19:06:54.269Z,13.80
2022-09-10T19:09:24.129Z,13.10
2022-09-10T19:11:53.819Z,12.90
2022-09-10T19:14:30.352Z,15.10
2022-09-10T19:17:00.272Z,15.10
2022-09-10T19:19:31.607Z,14.90
2022-09-10T19:22:03.269Z,14.50
2022-09-10T19:27:19.216Z,14.30
2022-09-10T19:29:49.528Z,13.50
2022-09-10T19:32:19.618Z,16.10
2022-09-10T19:34:52.117Z,14.30
2022-09-10T19:37:20.700Z,14.60
2022-09-10T19:39:48.463Z,16.60
2022-09-10T19:42:17.152Z,14.80
2022-09-10T19:44:45.218Z,16.30
2022-09-10T19:47:12.929Z,14.20
2022-09-10T19:49:40.595Z,16.00
2022-09-10T19:52:09.876Z,18.70
2022-09-10T19:54:37.454Z,17.20
2022-09-10T19:57:05.089Z,17.50
2022-09-10T19:59:32.674Z,14.70
2022-09-10T20:02:00.613Z,15.80
2022-09-10T20:04:28.579Z,16.80
2022-09-10T20:06:56.247Z,14.40
2022-09-10T20:09:24.132Z,14.60
2022-09-10T20:11:51.819Z,14.80
2022-09-10T20:14:20.143Z,15.70
2022-09-10T20:16:47.946Z,15.90
2022-09-10T20:19:21.826Z,14.00
2022-09-10T20:21:49.991Z,16.20
2022-09-10T20:24:17.620Z,17.50
2022-09-10T20:26:46.689Z,17.20
2022-09-10T20:29:20.626Z,16.40
2022-09-10T20:31:48.808Z,15.90
2022-09-10T20:34:19.698Z,15.60
2022-09-10T20:36:51.212Z,15.00
2022-09-10T20:39:22.289Z,17.20
2022-09-10T20:41:50.146Z,15.00
2022-09-10T20:44:18.111Z,14.60
2022-09-10T20:46:45.758Z,18.80
2022-09-10T20:49:16.102Z,17.10
2022-09-10T20:51:44.535Z,15.50
2022-09-10T20:54:15.038Z,13.90
2022-09-10T20:56:43.605Z,14.40
2022-09-10T20:59:16.786Z,16.30
2022-09-10T21:01:45.948Z,15.00
2022-09-10T21:04:14.608Z,15.20
2022-09-10T21:06:42.325Z,16.10
2022-09-10T21:09:11.192Z,16.40
2022-09-10T21:11:39.337Z,14.90
2022-09-10T21:14:08.016Z,16.50
2022-09-10T21:16:38.215Z,15.80
2022-09-10T21:19:12.026Z,17.00
2022-09-10T21:21:41.736Z,15.70
2022-09-10T21:24:14.552Z,16.40
2022-09-10T21:26:43.322Z,18.10
2022-09-10T21:29:16.824Z,16.20
2022-09-10T21:31:45.311Z,16.10
2022-09-10T21:34:14.080Z,15.30
2022-09-10T21:36:43.514Z,16.40
2022-09-10T21:39:16.497Z,16.90
2022-09-10T21:41:49.983Z,14.50
2022-09-10T21:44:20.017Z,17.10
2022-09-10T21:46:49.180Z,15.90
2022-09-10T21:49:18.393Z,15.70
2022-09-10T21:51:46.057Z,19.60
2022-09-10T21:54:18.537Z,15.90
2022-09-10T21:56:47.628Z,17.50
2022-09-10T21:59:16.111Z,17.80
2022-09-10T22:01:46.349Z,18.90
2022-09-10T22:04:18.945Z,18.40
2022-09-10T22:06:49.431Z,16.60
2022-09-10T22:09:17.659Z,16.10
2022-09-10T22:11:47.941Z,16.30
2022-09-10T22:14:21.342Z,17.70
2022-09-10T22:16:49.928Z,16.90
2022-09-10T22:19:21.697Z,17.90
2022-09-10T22:21:50.059Z,16.40
2022-09-10T22:24:20.952Z,17.30
2022-09-10T22:26:49.099Z,19.30
2022-09-10T22:29:18.883Z,20.60
2022-09-10T22:31:47.200Z,19.90
2022-09-10T22:34:16.395Z,18.20
2022-09-10T22:36:45.744Z,21.10
2022-09-10T22:39:17.424Z,18.20
2022-09-10T22:41:46.183Z,18.20
2022-09-10T22:44:14.686Z,16.10
2022-09-10T22:46:42.981Z,15.20
2022-09-10T22:49:10.825Z,15.80
2022-09-10T22:51:41.826Z,16.90
2022-09-10T22:54:10.637Z,16.10
2022-09-10T22:56:39.715Z,16.70
2022-09-10T22:59:12.241Z,17.40
2022-09-10T23:01:40.349Z,17.50
2022-09-10T23:04:09.428Z,16.70
2022-09-10T23:06:38.519Z,18.10
2022-09-10T23:09:14.117Z,17.60
2022-09-10T23:11:44.490Z,16.90
2022-09-10T23:14:15.656Z,17.10
2022-09-10T23:16:47.592Z,18.60
2022-09-10T23:19:25.033Z,18.20
2022-09-10T23:21:54.485Z,15.90
2022-09-10T23:24:24.563Z,16.50
2022-09-10T23:26:53.824Z,19.40
2022-09-10T23:29:23.223Z,16.50
2022-09-10T23:31:55.304Z,17.00
2022-09-10T23:34:23.424Z,16.20
2022-09-10T23:36:52.019Z,19.40
2022-09-10T23:39:24.323Z,16.30
2022-09-10T23:41:54.828Z,16.10
2022-09-10T23:44:22.935Z,15.80
2022-09-10T23:46:50.874Z,14.00
2022-09-10T23:49:18.458Z,15.70
2022-09-10T23:51:46.093Z,14.50
2022-09-10T23:54:13.682Z,16.90
2022-09-10T23:56:41.444Z,16.90
2022-09-10T23:59:10.005Z,15.10
